sensor_id;sensor_type;location;lat;lon;timestamp;P1;durP1;ratioP1;P2;durP2;ratioP2
8415;SDS011;4245;42.120;24.732;2023-04-24T00:01:02;12.70;;;7.33;;
8415;SDS011;4245;42.120;24.732;2023-04-24T00:03:32;11.77;;;7.40;;
8415;SDS011;4245;42.120;24.732;2023-04-24T00:05:59;11.77;;;7.00;;
8415;SDS011;4245;42.120;24.732;2023-04-24T00:08:29;10.63;;;6.50;;
8415;SDS011;4245;42.120;24.732;2023-04-24T00:10:55;13.03;;;8.43;;
8415;SDS011;4245;42.120;24.732;2023-04-24T00:13:22;17.93;;;9.13;;
8415;SDS011;4245;42.120;24.732;2023-04-24T00:15:50;16.43;;;10.23;;
8415;SDS011;4245;42.120;24.732;2023-04-24T00:18:17;18.67;;;10.27;;
8415;SDS011;4245;42.120;24.732;2023-04-24T00:20:43;16.50;;;8.63;;
8415;SDS011;4245;42.120;24.732;2023-04-24T00:23:12;11.40;;;8.30;;
8415;SDS011;4245;42.120;24.732;2023-04-24T00:25:40;14.00;;;8.70;;
8415;SDS011;4245;42.120;24.732;2023-04-24T00:28:07;15.90;;;9.23;;
8415;SDS011;4245;42.120;24.732;2023-04-24T00:30:33;17.17;;;9.27;;
8415;SDS011;4245;42.120;24.732;2023-04-24T00:33:01;13.93;;;10.10;;
8415;SDS011;4245;42.120;24.732;2023-04-24T00:35:28;13.23;;;9.77;;
8415;SDS011;4245;42.120;24.732;2023-04-24T00:37:54;14.47;;;9.53;;
8415;SDS011;4245;42.120;24.732;2023-04-24T00:40:21;15.23;;;10.73;;
8415;SDS011;4245;42.120;24.732;2023-04-24T00:42:50;17.07;;;10.67;;
8415;SDS011;4245;42.120;24.732;2023-04-24T00:45:16;18.10;;;10.70;;
8415;SDS011;4245;42.120;24.732;2023-04-24T00:47:43;16.40;;;10.43;;
8415;SDS011;4245;42.120;24.732;2023-04-24T00:50:11;17.97;;;10.33;;
8415;SDS011;4245;42.120;24.732;2023-04-24T00:52:41;19.07;;;11.20;;
8415;SDS011;4245;42.120;24.732;2023-04-24T00:55:08;14.40;;;10.63;;
8415;SDS011;4245;42.120;24.732;2023-04-24T00:57:35;15.43;;;11.10;;
8415;SDS011;4245;42.120;24.732;2023-04-24T01:00:05;16.30;;;10.70;;
8415;SDS011;4245;42.120;24.732;2023-04-24T01:02:36;15.07;;;10.93;;
8415;SDS011;4245;42.120;24.732;2023-04-24T01:05:05;15.03;;;10.53;;
8415;SDS011;4245;42.120;24.732;2023-04-24T01:07:32;16.57;;;11.00;;
8415;SDS011;4245;42.120;24.732;2023-04-24T01:09:59;16.47;;;11.40;;
8415;SDS011;4245;42.120;24.732;2023-04-24T01:12:26;16.10;;;10.80;;
8415;SDS011;4245;42.120;24.732;2023-04-24T01:14:53;13.80;;;10.17;;
8415;SDS011;4245;42.120;24.732;2023-04-24T01:17:23;15.27;;;10.70;;
8415;SDS011;4245;42.120;24.732;2023-04-24T01:19:50;19.73;;;11.00;;
8415;SDS011;4245;42.120;24.732;2023-04-24T01:22:20;18.07;;;10.83;;
8415;SDS011;4245;42.120;24.732;2023-04-24T01:24:47;13.10;;;10.43;;
8415;SDS011;4245;42.120;24.732;2023-04-24T01:27:14;15.00;;;10.00;;
8415;SDS011;4245;42.120;24.732;2023-04-24T01:29:41;18.33;;;11.23;;
8415;SDS011;4245;42.120;24.732;2023-04-24T01:32:08;17.37;;;11.10;;
8415;SDS011;4245;42.120;24.732;2023-04-24T01:34:35;15.27;;;10.47;;
8415;SDS011;4245;42.120;24.732;2023-04-24T01:37:02;15.90;;;10.60;;
8415;SDS011;4245;42.120;24.732;2023-04-24T01:39:31;17.20;;;10.93;;
8415;SDS011;4245;42.120;24.732;2023-04-24T01:41:58;14.37;;;10.23;;
8415;SDS011;4245;42.120;24.732;2023-04-24T01:44:25;21.53;;;11.63;;
8415;SDS011;4245;42.120;24.732;2023-04-24T01:46:52;23.20;;;10.67;;
8415;SDS011;4245;42.120;24.732;2023-04-24T01:49:20;15.57;;;10.83;;
8415;SDS011;4245;42.120;24.732;2023-04-24T01:51:47;17.60;;;11.33;;
8415;SDS011;4245;42.120;24.732;2023-04-24T01:54:14;17.23;;;11.30;;
8415;SDS011;4245;42.120;24.732;2023-04-24T01:56:42;19.00;;;12.40;;
8415;SDS011;4245;42.120;24.732;2023-04-24T01:59:10;26.70;;;13.00;;
8415;SDS011;4245;42.120;24.732;2023-04-24T02:01:37;17.17;;;12.23;;
8415;SDS011;4245;42.120;24.732;2023-04-24T02:04:05;18.03;;;12.70;;
8415;SDS011;4245;42.120;24.732;2023-04-24T02:06:32;20.10;;;13.23;;
8415;SDS011;4245;42.120;24.732;2023-04-24T02:08:59;18.70;;;12.97;;
8415;SDS011;4245;42.120;24.732;2023-04-24T02:11:26;20.30;;;13.03;;
8415;SDS011;4245;42.120;24.732;2023-04-24T02:13:54;19.80;;;12.77;;
8415;SDS011;4245;42.120;24.732;2023-04-24T02:16:21;18.70;;;13.27;;
8415;SDS011;4245;42.120;24.732;2023-04-24T02:18:48;21.57;;;13.03;;
8415;SDS011;4245;42.120;24.732;2023-04-24T02:21:15;18.77;;;12.30;;
8415;SDS011;4245;42.120;24.732;2023-04-24T02:23:42;18.87;;;12.97;;
8415;SDS011;4245;42.120;24.732;2023-04-24T02:26:09;18.80;;;12.00;;
8415;SDS011;4245;42.120;24.732;2023-04-24T02:28:36;18.17;;;12.03;;
8415;SDS011;4245;42.120;24.732;2023-04-24T02:31:04;18.53;;;12.17;;
8415;SDS011;4245;42.120;24.732;2023-04-24T02:33:31;19.53;;;13.20;;
8415;SDS011;4245;42.120;24.732;2023-04-24T02:35:58;17.90;;;11.83;;
8415;SDS011;4245;42.120;24.732;2023-04-24T02:38:25;22.37;;;12.10;;
8415;SDS011;4245;42.120;24.732;2023-04-24T02:40:52;17.60;;;11.93;;
8415;SDS011;4245;42.120;24.732;2023-04-24T02:43:18;17.67;;;11.87;;
8415;SDS011;4245;42.120;24.732;2023-04-24T02:45:45;17.80;;;12.73;;
8415;SDS011;4245;42.120;24.732;2023-04-24T02:48:13;17.03;;;11.33;;
8415;SDS011;4245;42.120;24.732;2023-04-24T02:50:40;16.83;;;12.10;;
8415;SDS011;4245;42.120;24.732;2023-04-24T02:53:07;15.27;;;11.60;;
8415;SDS011;4245;42.120;24.732;2023-04-24T02:55:34;16.50;;;11.57;;
8415;SDS011;4245;42.120;24.732;2023-04-24T02:58:01;21.30;;;11.60;;
8415;SDS011;4245;42.120;24.732;2023-04-24T03:00:27;17.70;;;11.77;;
8415;SDS011;4245;42.120;24.732;2023-04-24T03:02:54;18.77;;;11.50;;
8415;SDS011;4245;42.120;24.732;2023-04-24T03:05:23;16.57;;;12.07;;
8415;SDS011;4245;42.120;24.732;2023-04-24T03:07:50;17.00;;;12.30;;
8415;SDS011;4245;42.120;24.732;2023-04-24T03:10:17;22.93;;;12.53;;
8415;SDS011;4245;42.120;24.732;2023-04-24T03:12:44;21.07;;;14.07;;
8415;SDS011;4245;42.120;24.732;2023-04-24T03:15:11;19.07;;;13.47;;
8415;SDS011;4245;42.120;24.732;2023-04-24T03:17:38;22.17;;;14.33;;
8415;SDS011;4245;42.120;24.732;2023-04-24T03:20:05;20.00;;;13.37;;
8415;SDS011;4245;42.120;24.732;2023-04-24T03:22:35;21.30;;;13.07;;
8415;SDS011;4245;42.120;24.732;2023-04-24T03:25:02;22.13;;;13.43;;
8415;SDS011;4245;42.120;24.732;2023-04-24T03:27:29;21.47;;;13.27;;
8415;SDS011;4245;42.120;24.732;2023-04-24T03:29:56;17.47;;;12.40;;
8415;SDS011;4245;42.120;24.732;2023-04-24T03:32:23;19.90;;;13.10;;
8415;SDS011;4245;42.120;24.732;2023-04-24T03:34:50;23.10;;;13.53;;
8415;SDS011;4245;42.120;24.732;2023-04-24T03:37:16;21.37;;;13.27;;
8415;SDS011;4245;42.120;24.732;2023-04-24T03:39:45;22.67;;;12.93;;
8415;SDS011;4245;42.120;24.732;2023-04-24T03:42:11;17.93;;;13.10;;
8415;SDS011;4245;42.120;24.732;2023-04-24T03:44:38;18.67;;;13.53;;
8415;SDS011;4245;42.120;24.732;2023-04-24T03:47:05;22.00;;;14.53;;
8415;SDS011;4245;42.120;24.732;2023-04-24T03:49:32;21.10;;;14.20;;
8415;SDS011;4245;42.120;24.732;2023-04-24T03:51:59;18.67;;;12.60;;
8415;SDS011;4245;42.120;24.732;2023-04-24T03:54:25;21.13;;;12.20;;
8415;SDS011;4245;42.120;24.732;2023-04-24T03:56:53;22.73;;;13.67;;
8415;SDS011;4245;42.120;24.732;2023-04-24T03:59:20;24.73;;;14.60;;
8415;SDS011;4245;42.120;24.732;2023-04-24T04:01:47;26.40;;;13.67;;
8415;SDS011;4245;42.120;24.732;2023-04-24T04:04:14;22.73;;;15.40;;
8415;SDS011;4245;42.120;24.732;2023-04-24T04:06:40;24.93;;;17.00;;
8415;SDS011;4245;42.120;24.732;2023-04-24T04:09:07;27.07;;;15.53;;
8415;SDS011;4245;42.120;24.732;2023-04-24T04:11:34;49.23;;;28.13;;
8415;SDS011;4245;42.120;24.732;2023-04-24T04:14:03;22.70;;;13.03;;
8415;SDS011;4245;42.120;24.732;2023-04-24T04:16:30;20.63;;;11.80;;
8415;SDS011;4245;42.120;24.732;2023-04-24T04:19:01;20.30;;;12.57;;
8415;SDS011;4245;42.120;24.732;2023-04-24T04:21:28;21.40;;;11.83;;
8415;SDS011;4245;42.120;24.732;2023-04-24T04:23:56;25.73;;;11.90;;
8415;SDS011;4245;42.120;24.732;2023-04-24T04:26:23;20.00;;;11.83;;
8415;SDS011;4245;42.120;24.732;2023-04-24T04:28:50;24.43;;;12.13;;
8415;SDS011;4245;42.120;24.732;2023-04-24T04:31:19;25.93;;;11.73;;
8415;SDS011;4245;42.120;24.732;2023-04-24T04:33:46;19.37;;;12.53;;
8415;SDS011;4245;42.120;24.732;2023-04-24T04:36:12;26.03;;;11.93;;
8415;SDS011;4245;42.120;24.732;2023-04-24T04:38:39;36.43;;;12.47;;
8415;SDS011;4245;42.120;24.732;2023-04-24T04:41:08;23.50;;;12.40;;
8415;SDS011;4245;42.120;24.732;2023-04-24T04:43:34;20.57;;;12.57;;
8415;SDS011;4245;42.120;24.732;2023-04-24T04:46:01;22.63;;;11.57;;
8415;SDS011;4245;42.120;24.732;2023-04-24T04:48:30;24.47;;;12.23;;
8415;SDS011;4245;42.120;24.732;2023-04-24T04:50:58;19.57;;;11.63;;
8415;SDS011;4245;42.120;24.732;2023-04-24T04:53:25;25.20;;;12.00;;
8415;SDS011;4245;42.120;24.732;2023-04-24T04:55:52;32.70;;;12.33;;
8415;SDS011;4245;42.120;24.732;2023-04-24T04:58:19;19.23;;;11.90;;
8415;SDS011;4245;42.120;24.732;2023-04-24T05:00:46;20.67;;;11.33;;
8415;SDS011;4245;42.120;24.732;2023-04-24T05:03:13;23.13;;;12.33;;
8415;SDS011;4245;42.120;24.732;2023-04-24T05:05:41;17.87;;;10.87;;
8415;SDS011;4245;42.120;24.732;2023-04-24T05:08:08;26.23;;;10.87;;
8415;SDS011;4245;42.120;24.732;2023-04-24T05:10:35;27.03;;;9.10;;
8415;SDS011;4245;42.120;24.732;2023-04-24T05:13:02;12.03;;;8.30;;
8415;SDS011;4245;42.120;24.732;2023-04-24T05:15:29;16.97;;;10.27;;
8415;SDS011;4245;42.120;24.732;2023-04-24T05:17:56;21.07;;;9.83;;
8415;SDS011;4245;42.120;24.732;2023-04-24T05:20:23;16.27;;;9.37;;
8415;SDS011;4245;42.120;24.732;2023-04-24T05:22:51;14.57;;;9.70;;
8415;SDS011;4245;42.120;24.732;2023-04-24T05:25:18;14.37;;;9.07;;
8415;SDS011;4245;42.120;24.732;2023-04-24T05:27:45;13.80;;;9.70;;
8415;SDS011;4245;42.120;24.732;2023-04-24T05:30:12;20.73;;;10.10;;
8415;SDS011;4245;42.120;24.732;2023-04-24T05:32:39;17.43;;;10.87;;
8415;SDS011;4245;42.120;24.732;2023-04-24T05:35:06;23.87;;;10.23;;
8415;SDS011;4245;42.120;24.732;2023-04-24T05:37:33;17.93;;;10.20;;
8415;SDS011;4245;42.120;24.732;2023-04-24T05:40:02;21.07;;;11.10;;
8415;SDS011;4245;42.120;24.732;2023-04-24T05:42:30;15.20;;;10.50;;
8415;SDS011;4245;42.120;24.732;2023-04-24T05:44:57;14.10;;;9.80;;
8415;SDS011;4245;42.120;24.732;2023-04-24T05:47:24;19.60;;;10.53;;
8415;SDS011;4245;42.120;24.732;2023-04-24T05:49:51;12.93;;;10.63;;
8415;SDS011;4245;42.120;24.732;2023-04-24T05:52:19;26.67;;;11.17;;
8415;SDS011;4245;42.120;24.732;2023-04-24T05:54:45;22.47;;;11.10;;
8415;SDS011;4245;42.120;24.732;2023-04-24T05:57:14;22.17;;;10.27;;
8415;SDS011;4245;42.120;24.732;2023-04-24T05:59:40;17.67;;;10.83;;
8415;SDS011;4245;42.120;24.732;2023-04-24T06:02:07;18.30;;;10.47;;
8415;SDS011;4245;42.120;24.732;2023-04-24T06:04:34;18.50;;;10.43;;
8415;SDS011;4245;42.120;24.732;2023-04-24T06:07:01;20.13;;;11.73;;
8415;SDS011;4245;42.120;24.732;2023-04-24T06:09:28;17.47;;;11.10;;
8415;SDS011;4245;42.120;24.732;2023-04-24T06:11:54;21.93;;;11.80;;
8415;SDS011;4245;42.120;24.732;2023-04-24T06:14:23;25.93;;;11.40;;
8415;SDS011;4245;42.120;24.732;2023-04-24T06:16:49;18.23;;;11.10;;
8415;SDS011;4245;42.120;24.732;2023-04-24T06:19:16;16.27;;;8.90;;
8415;SDS011;4245;42.120;24.732;2023-04-24T06:21:43;18.17;;;9.90;;
8415;SDS011;4245;42.120;24.732;2023-04-24T06:24:10;19.90;;;9.33;;
8415;SDS011;4245;42.120;24.732;2023-04-24T06:26:37;13.33;;;8.97;;
8415;SDS011;4245;42.120;24.732;2023-04-24T06:29:03;21.77;;;11.30;;
8415;SDS011;4245;42.120;24.732;2023-04-24T06:31:32;17.70;;;10.30;;
8415;SDS011;4245;42.120;24.732;2023-04-24T06:34:02;16.23;;;10.37;;
8415;SDS011;4245;42.120;24.732;2023-04-24T06:36:28;13.43;;;8.87;;
8415;SDS011;4245;42.120;24.732;2023-04-24T06:38:56;16.10;;;9.57;;
8415;SDS011;4245;42.120;24.732;2023-04-24T06:41:23;12.37;;;8.20;;
8415;SDS011;4245;42.120;24.732;2023-04-24T06:43:50;16.23;;;9.03;;
8415;SDS011;4245;42.120;24.732;2023-04-24T06:46:17;12.50;;;8.20;;
8415;SDS011;4245;42.120;24.732;2023-04-24T06:48:45;15.77;;;8.30;;
8415;SDS011;4245;42.120;24.732;2023-04-24T06:51:12;13.27;;;8.63;;
8415;SDS011;4245;42.120;24.732;2023-04-24T06:53:39;21.73;;;15.60;;
8415;SDS011;4245;42.120;24.732;2023-04-24T06:56:05;18.33;;;8.93;;
8415;SDS011;4245;42.120;24.732;2023-04-24T06:58:32;12.57;;;8.23;;
8415;SDS011;4245;42.120;24.732;2023-04-24T07:00:59;15.47;;;7.90;;
8415;SDS011;4245;42.120;24.732;2023-04-24T07:03:26;12.33;;;7.93;;
8415;SDS011;4245;42.120;24.732;2023-04-24T07:05:54;15.27;;;8.67;;
8415;SDS011;4245;42.120;24.732;2023-04-24T07:08:21;19.43;;;9.10;;
8415;SDS011;4245;42.120;24.732;2023-04-24T07:10:48;13.23;;;9.10;;
8415;SDS011;4245;42.120;24.732;2023-04-24T07:13:15;16.93;;;8.87;;
8415;SDS011;4245;42.120;24.732;2023-04-24T07:15:42;12.77;;;8.23;;
8415;SDS011;4245;42.120;24.732;2023-04-24T07:18:09;12.00;;;9.53;;
8415;SDS011;4245;42.120;24.732;2023-04-24T07:20:36;15.33;;;8.33;;
8415;SDS011;4245;42.120;24.732;2023-04-24T07:23:04;15.13;;;8.50;;
8415;SDS011;4245;42.120;24.732;2023-04-24T07:25:31;18.97;;;9.13;;
8415;SDS011;4245;42.120;24.732;2023-04-24T07:27:58;14.07;;;8.87;;
8415;SDS011;4245;42.120;24.732;2023-04-24T07:30:24;12.47;;;8.40;;
8415;SDS011;4245;42.120;24.732;2023-04-24T07:32:53;11.90;;;8.43;;
8415;SDS011;4245;42.120;24.732;2023-04-24T07:35:20;11.73;;;8.60;;
8415;SDS011;4245;42.120;24.732;2023-04-24T07:37:47;17.63;;;8.70;;
8415;SDS011;4245;42.120;24.732;2023-04-24T07:40:15;13.50;;;8.60;;
8415;SDS011;4245;42.120;24.732;2023-04-24T07:42:42;16.03;;;10.00;;
8415;SDS011;4245;42.120;24.732;2023-04-24T07:45:10;16.87;;;8.63;;
8415;SDS011;4245;42.120;24.732;2023-04-24T07:47:36;17.83;;;9.20;;
8415;SDS011;4245;42.120;24.732;2023-04-24T07:50:05;14.30;;;7.80;;
8415;SDS011;4245;42.120;24.732;2023-04-24T07:52:32;13.47;;;8.33;;
8415;SDS011;4245;42.120;24.732;2023-04-24T07:54:59;17.27;;;8.23;;
8415;SDS011;4245;42.120;24.732;2023-04-24T07:57:28;11.37;;;7.70;;
8415;SDS011;4245;42.120;24.732;2023-04-24T07:59:55;11.80;;;8.43;;
8415;SDS011;4245;42.120;24.732;2023-04-24T08:02:22;14.43;;;8.77;;
8415;SDS011;4245;42.120;24.732;2023-04-24T08:04:51;11.30;;;8.00;;
8415;SDS011;4245;42.120;24.732;2023-04-24T08:07:18;14.07;;;8.33;;
8415;SDS011;4245;42.120;24.732;2023-04-24T08:09:45;12.07;;;8.87;;
8415;SDS011;4245;42.120;24.732;2023-04-24T08:12:12;14.57;;;8.40;;
8415;SDS011;4245;42.120;24.732;2023-04-24T08:14:40;15.23;;;8.13;;
8415;SDS011;4245;42.120;24.732;2023-04-24T08:17:07;15.83;;;8.47;;
8415;SDS011;4245;42.120;24.732;2023-04-24T08:19:34;12.33;;;8.33;;
8415;SDS011;4245;42.120;24.732;2023-04-24T08:22:01;10.90;;;8.40;;
8415;SDS011;4245;42.120;24.732;2023-04-24T08:24:29;13.27;;;8.10;;
8415;SDS011;4245;42.120;24.732;2023-04-24T08:26:56;16.60;;;8.57;;
8415;SDS011;4245;42.120;24.732;2023-04-24T08:29:23;15.03;;;9.40;;
8415;SDS011;4245;42.120;24.732;2023-04-24T08:31:53;17.90;;;9.87;;
8415;SDS011;4245;42.120;24.732;2023-04-24T08:34:20;13.47;;;8.70;;
8415;SDS011;4245;42.120;24.732;2023-04-24T08:36:47;14.80;;;9.10;;
8415;SDS011;4245;42.120;24.732;2023-04-24T08:39:14;15.07;;;9.83;;
8415;SDS011;4245;42.120;24.732;2023-04-24T08:41:42;21.77;;;9.67;;
8415;SDS011;4245;42.120;24.732;2023-04-24T08:44:10;17.50;;;9.43;;
8415;SDS011;4245;42.120;24.732;2023-04-24T08:46:37;14.43;;;8.70;;
8415;SDS011;4245;42.120;24.732;2023-04-24T08:49:07;12.13;;;8.70;;
8415;SDS011;4245;42.120;24.732;2023-04-24T08:51:33;15.00;;;9.00;;
8415;SDS011;4245;42.120;24.732;2023-04-24T08:54:02;15.63;;;8.17;;
8415;SDS011;4245;42.120;24.732;2023-04-24T08:56:30;17.85;;;9.93;;
8415;SDS011;4245;42.120;24.732;2023-04-24T08:59:02;14.50;;;8.13;;
8415;SDS011;4245;42.120;24.732;2023-04-24T09:01:30;12.27;;;7.75;;
8415;SDS011;4245;42.120;24.732;2023-04-24T09:04:00;10.13;;;8.30;;
8415;SDS011;4245;42.120;24.732;2023-04-24T09:06:30;19.25;;;15.93;;
8415;SDS011;4245;42.120;24.732;2023-04-24T09:08:58;19.35;;;12.90;;
8415;SDS011;4245;42.120;24.732;2023-04-24T09:11:27;18.67;;;14.70;;
8415;SDS011;4245;42.120;24.732;2023-04-24T09:13:54;13.82;;;9.90;;
8415;SDS011;4245;42.120;24.732;2023-04-24T09:16:21;12.43;;;8.00;;
8415;SDS011;4245;42.120;24.732;2023-04-24T09:18:49;11.25;;;7.93;;
8415;SDS011;4245;42.120;24.732;2023-04-24T09:21:16;10.80;;;6.82;;
8415;SDS011;4245;42.120;24.732;2023-04-24T09:23:44;12.57;;;6.28;;
8415;SDS011;4245;42.120;24.732;2023-04-24T09:26:11;8.88;;;7.07;;
8415;SDS011;4245;42.120;24.732;2023-04-24T09:28:40;11.20;;;7.00;;
8415;SDS011;4245;42.120;24.732;2023-04-24T09:31:08;12.20;;;7.07;;
8415;SDS011;4245;42.120;24.732;2023-04-24T09:33:38;8.90;;;6.70;;
8415;SDS011;4245;42.120;24.732;2023-04-24T09:36:05;8.05;;;6.95;;
8415;SDS011;4245;42.120;24.732;2023-04-24T09:38:35;11.63;;;6.70;;
8415;SDS011;4245;42.120;24.732;2023-04-24T09:41:05;9.10;;;6.07;;
8415;SDS011;4245;42.120;24.732;2023-04-24T09:43:33;10.70;;;6.35;;
8415;SDS011;4245;42.120;24.732;2023-04-24T09:46:04;10.63;;;6.63;;
8415;SDS011;4245;42.120;24.732;2023-04-24T09:48:31;7.28;;;6.57;;
8415;SDS011;4245;42.120;24.732;2023-04-24T09:51:00;11.00;;;6.57;;
8415;SDS011;4245;42.120;24.732;2023-04-24T09:53:28;10.23;;;7.65;;
8415;SDS011;4245;42.120;24.732;2023-04-24T09:55:56;11.43;;;6.97;;
8415;SDS011;4245;42.120;24.732;2023-04-24T09:58:30;7.53;;;6.53;;
8415;SDS011;4245;42.120;24.732;2023-04-24T10:00:57;8.00;;;6.68;;
8415;SDS011;4245;42.120;24.732;2023-04-24T10:03:24;10.55;;;7.63;;
8415;SDS011;4245;42.120;24.732;2023-04-24T10:05:53;17.33;;;7.40;;
8415;SDS011;4245;42.120;24.732;2023-04-24T10:08:20;12.00;;;7.00;;
8415;SDS011;4245;42.120;24.732;2023-04-24T10:10:48;11.88;;;6.70;;
8415;SDS011;4245;42.120;24.732;2023-04-24T10:13:14;10.57;;;6.72;;
8415;SDS011;4245;42.120;24.732;2023-04-24T10:15:43;7.05;;;6.35;;
8415;SDS011;4245;42.120;24.732;2023-04-24T10:18:10;8.95;;;6.70;;
8415;SDS011;4245;42.120;24.732;2023-04-24T10:20:38;11.15;;;7.18;;
8415;SDS011;4245;42.120;24.732;2023-04-24T10:23:05;11.50;;;7.07;;
8415;SDS011;4245;42.120;24.732;2023-04-24T10:25:33;8.32;;;7.20;;
8415;SDS011;4245;42.120;24.732;2023-04-24T10:28:01;10.05;;;6.93;;
8415;SDS011;4245;42.120;24.732;2023-04-24T10:30:30;12.35;;;7.13;;
8415;SDS011;4245;42.120;24.732;2023-04-24T10:33:01;14.98;;;8.30;;
8415;SDS011;4245;42.120;24.732;2023-04-24T10:35:30;9.52;;;8.23;;
8415;SDS011;4245;42.120;24.732;2023-04-24T10:37:58;8.82;;;7.80;;
8415;SDS011;4245;42.120;24.732;2023-04-24T10:40:30;12.52;;;6.88;;
8415;SDS011;4245;42.120;24.732;2023-04-24T10:42:58;10.68;;;7.00;;
8415;SDS011;4245;42.120;24.732;2023-04-24T10:45:25;8.73;;;6.50;;
8415;SDS011;4245;42.120;24.732;2023-04-24T10:48:03;8.93;;;6.82;;
8415;SDS011;4245;42.120;24.732;2023-04-24T10:50:42;10.10;;;6.57;;
8415;SDS011;4245;42.120;24.732;2023-04-24T10:53:15;17.80;;;10.68;;
8415;SDS011;4245;42.120;24.732;2023-04-24T10:55:43;9.32;;;6.90;;
8415;SDS011;4245;42.120;24.732;2023-04-24T10:58:12;8.20;;;6.38;;
8415;SDS011;4245;42.120;24.732;2023-04-24T11:00:40;8.00;;;6.30;;
8415;SDS011;4245;42.120;24.732;2023-04-24T11:03:23;6.05;;;5.53;;
8415;SDS011;4245;42.120;24.732;2023-04-24T11:05:52;7.88;;;6.13;;
8415;SDS011;4245;42.120;24.732;2023-04-24T11:08:23;9.50;;;6.15;;
8415;SDS011;4245;42.120;24.732;2023-04-24T11:10:58;7.28;;;6.57;;
8415;SDS011;4245;42.120;24.732;2023-04-24T11:13:28;8.65;;;6.20;;
8415;SDS011;4245;42.120;24.732;2023-04-24T11:16:36;9.57;;;6.30;;
8415;SDS011;4245;42.120;24.732;2023-04-24T11:19:18;6.43;;;5.65;;
8415;SDS011;4245;42.120;24.732;2023-04-24T11:21:49;9.95;;;6.38;;
8415;SDS011;4245;42.120;24.732;2023-04-24T11:24:25;8.85;;;6.28;;
8415;SDS011;4245;42.120;24.732;2023-04-24T11:26:54;13.48;;;10.25;;
8415;SDS011;4245;42.120;24.732;2023-04-24T11:29:22;16.17;;;7.47;;
8415;SDS011;4245;42.120;24.732;2023-04-24T11:31:49;12.75;;;7.40;;
8415;SDS011;4245;42.120;24.732;2023-04-24T11:34:18;9.18;;;7.35;;
8415;SDS011;4245;42.120;24.732;2023-04-24T11:36:45;13.63;;;7.28;;
8415;SDS011;4245;42.120;24.732;2023-04-24T11:39:12;8.77;;;7.05;;
8415;SDS011;4245;42.120;24.732;2023-04-24T11:41:39;19.00;;;7.68;;
8415;SDS011;4245;42.120;24.732;2023-04-24T11:44:07;8.65;;;6.20;;
8415;SDS011;4245;42.120;24.732;2023-04-24T11:46:35;9.15;;;6.13;;
8415;SDS011;4245;42.120;24.732;2023-04-24T11:49:03;10.75;;;6.70;;
8415;SDS011;4245;42.120;24.732;2023-04-24T11:51:31;11.13;;;7.10;;
8415;SDS011;4245;42.120;24.732;2023-04-24T11:53:58;12.65;;;6.35;;
8415;SDS011;4245;42.120;24.732;2023-04-24T11:56:25;14.18;;;8.05;;
8415;SDS011;4245;42.120;24.732;2023-04-24T11:58:52;24.00;;;15.70;;
8415;SDS011;4245;42.120;24.732;2023-04-24T12:01:20;15.82;;;8.25;;
8415;SDS011;4245;42.120;24.732;2023-04-24T12:03:47;12.88;;;6.97;;
8415;SDS011;4245;42.120;24.732;2023-04-24T12:06:16;11.25;;;7.03;;
8415;SDS011;4245;42.120;24.732;2023-04-24T12:08:46;19.05;;;7.80;;
8415;SDS011;4245;42.120;24.732;2023-04-24T12:11:15;8.45;;;5.72;;
8415;SDS011;4245;42.120;24.732;2023-04-24T12:13:44;11.00;;;6.25;;
8415;SDS011;4245;42.120;24.732;2023-04-24T12:16:11;13.18;;;5.60;;
8415;SDS011;4245;42.120;24.732;2023-04-24T12:18:42;14.40;;;5.53;;
8415;SDS011;4245;42.120;24.732;2023-04-24T12:21:20;6.88;;;5.35;;
8415;SDS011;4245;42.120;24.732;2023-04-24T12:23:50;10.82;;;5.55;;
8415;SDS011;4245;42.120;24.732;2023-04-24T12:26:20;13.98;;;6.22;;
8415;SDS011;4245;42.120;24.732;2023-04-24T12:28:48;8.85;;;5.50;;
8415;SDS011;4245;42.120;24.732;2023-04-24T12:31:16;6.40;;;5.60;;
8415;SDS011;4245;42.120;24.732;2023-04-24T12:33:43;5.72;;;4.93;;
8415;SDS011;4245;42.120;24.732;2023-04-24T12:36:10;5.90;;;5.03;;
8415;SDS011;4245;42.120;24.732;2023-04-24T12:38:38;10.73;;;5.07;;
8415;SDS011;4245;42.120;24.732;2023-04-24T12:41:11;8.57;;;4.97;;
8415;SDS011;4245;42.120;24.732;2023-04-24T12:43:50;12.00;;;5.60;;
8415;SDS011;4245;42.120;24.732;2023-04-24T12:46:18;6.10;;;4.93;;
8415;SDS011;4245;42.120;24.732;2023-04-24T12:48:44;7.10;;;5.05;;
8415;SDS011;4245;42.120;24.732;2023-04-24T12:51:11;10.45;;;4.93;;
8415;SDS011;4245;42.120;24.732;2023-04-24T12:53:38;8.57;;;4.60;;
8415;SDS011;4245;42.120;24.732;2023-04-24T12:56:05;6.38;;;4.88;;
8415;SDS011;4245;42.120;24.732;2023-04-24T12:58:33;7.03;;;4.72;;
8415;SDS011;4245;42.120;24.732;2023-04-24T13:01:00;8.32;;;5.03;;
8415;SDS011;4245;42.120;24.732;2023-04-24T13:03:27;11.45;;;5.35;;
8415;SDS011;4245;42.120;24.732;2023-04-24T13:05:54;5.43;;;4.93;;
8415;SDS011;4245;42.120;24.732;2023-04-24T13:08:20;5.75;;;5.15;;
8415;SDS011;4245;42.120;24.732;2023-04-24T13:10:47;5.25;;;4.68;;
8415;SDS011;4245;42.120;24.732;2023-04-24T13:13:14;5.72;;;4.65;;
8415;SDS011;4245;42.120;24.732;2023-04-24T13:15:42;6.35;;;4.90;;
8415;SDS011;4245;42.120;24.732;2023-04-24T13:18:09;7.20;;;5.20;;
8415;SDS011;4245;42.120;24.732;2023-04-24T13:20:36;6.07;;;4.95;;
8415;SDS011;4245;42.120;24.732;2023-04-24T13:23:03;13.73;;;5.85;;
8415;SDS011;4245;42.120;24.732;2023-04-24T13:25:34;6.32;;;4.50;;
8415;SDS011;4245;42.120;24.732;2023-04-24T13:28:02;6.05;;;4.70;;
8415;SDS011;4245;42.120;24.732;2023-04-24T13:30:29;6.68;;;4.72;;
8415;SDS011;4245;42.120;24.732;2023-04-24T13:32:57;6.53;;;5.43;;
8415;SDS011;4245;42.120;24.732;2023-04-24T13:35:24;6.75;;;5.05;;
8415;SDS011;4245;42.120;24.732;2023-04-24T13:37:50;7.45;;;4.95;;
8415;SDS011;4245;42.120;24.732;2023-04-24T13:40:17;6.93;;;5.30;;
8415;SDS011;4245;42.120;24.732;2023-04-24T13:42:44;6.13;;;5.22;;
8415;SDS011;4245;42.120;24.732;2023-04-24T13:45:11;8.77;;;5.47;;
8415;SDS011;4245;42.120;24.732;2023-04-24T13:47:38;10.55;;;5.93;;
8415;SDS011;4245;42.120;24.732;2023-04-24T13:50:08;12.25;;;7.50;;
8415;SDS011;4245;42.120;24.732;2023-04-24T13:52:35;6.05;;;5.40;;
8415;SDS011;4245;42.120;24.732;2023-04-24T13:55:02;8.68;;;5.20;;
8415;SDS011;4245;42.120;24.732;2023-04-24T13:57:29;6.70;;;4.93;;
8415;SDS011;4245;42.120;24.732;2023-04-24T13:59:56;10.15;;;5.53;;
8415;SDS011;4245;42.120;24.732;2023-04-24T14:02:26;12.80;;;7.35;;
8415;SDS011;4245;42.120;24.732;2023-04-24T14:04:53;8.75;;;4.95;;
8415;SDS011;4245;42.120;24.732;2023-04-24T14:07:21;9.18;;;5.50;;
8415;SDS011;4245;42.120;24.732;2023-04-24T14:09:48;6.88;;;4.78;;
8415;SDS011;4245;42.120;24.732;2023-04-24T14:12:15;6.65;;;4.93;;
8415;SDS011;4245;42.120;24.732;2023-04-24T14:14:44;8.63;;;5.70;;
8415;SDS011;4245;42.120;24.732;2023-04-24T14:17:13;8.05;;;6.10;;
8415;SDS011;4245;42.120;24.732;2023-04-24T14:19:39;11.60;;;5.97;;
8415;SDS011;4245;42.120;24.732;2023-04-24T14:22:06;6.78;;;5.20;;
8415;SDS011;4245;42.120;24.732;2023-04-24T14:24:35;10.75;;;5.30;;
8415;SDS011;4245;42.120;24.732;2023-04-24T14:27:01;25.45;;;17.75;;
8415;SDS011;4245;42.120;24.732;2023-04-24T14:29:28;12.50;;;10.48;;
8415;SDS011;4245;42.120;24.732;2023-04-24T14:31:55;10.50;;;7.80;;
8415;SDS011;4245;42.120;24.732;2023-04-24T14:34:22;10.57;;;6.38;;
8415;SDS011;4245;42.120;24.732;2023-04-24T14:36:48;7.10;;;4.80;;
8415;SDS011;4245;42.120;24.732;2023-04-24T14:39:15;7.70;;;4.93;;
8415;SDS011;4245;42.120;24.732;2023-04-24T14:41:43;10.30;;;5.93;;
8415;SDS011;4245;42.120;24.732;2023-04-24T14:44:10;8.45;;;6.95;;
8415;SDS011;4245;42.120;24.732;2023-04-24T14:46:37;12.68;;;6.95;;
8415;SDS011;4245;42.120;24.732;2023-04-24T14:49:04;10.48;;;5.28;;